Latest Weather Observations for Canberra

IDN60901

Issued at 6:31 pm EDT Tuesday 9 February 2016 (issued every 10 minutes, with the page automatically refreshed every 10 minutes)

About weather observations | Map of Canberra area stations | Latest observations for Canberra area | Other Formats
Station Details ID: 070351 Name: CANBERRA AIRPORT Lat: -35.31 Lon: 149.20 Height: 577.05 m
Data from the previous 72 hours. | See also: Recent months at Canberra
Date/Time
EDT
Tmp

°C
App
Tmp
°C
Dew
Point
°C
Rel
Hum
%
Delta-T

°C
Wind Press
QNH
hPa
Press
MSL
hPa
Rain
since
9 am
mm
Dir
 
Spd
km/h
Gust
km/h
Spd
kts
Gust
kts
09/06:00pm 28.0 25.8 15.0 45 8.1 NE 20 28 11 15 1017.7 1015.3 0.0
09/05:30pm 28.7 27.3 14.5 42 8.8 N 15 30 8 16 1017.8 1015.4 0.0
09/05:00pm 28.0 27.0 13.5 41 8.8 NE 11 17 6 9 1018.1 1015.6 0.0
09/04:30pm 29.3 28.7 13.5 38 9.6 NNW 9 22 5 12 1018.4 1015.9 0.0
09/04:00pm 28.6 27.5 14.4 41 8.8 NNE 13 22 7 12 1018.7 1016.2 0.0
09/03:30pm 27.7 26.8 12.5 39 9.1 ENE 9 15 5 8 1019.1 1016.7 0.0
09/03:00pm 27.6 26.5 13.2 41 8.7 NNW 11 15 6 8 1019.6 1017.2 0.0
09/02:30pm 27.2 26.4 12.8 41 8.6 NW 9 15 5 8 1020.2 1017.7 0.0
09/02:00pm 26.2 26.4 13.0 44 7.9 ENE 4 13 2 7 1020.5 1018.1 0.0
09/01:30pm 25.9 24.5 13.4 46 7.5 NE 13 17 7 9 1021.0 1018.6 0.0
09/01:00pm 25.1 23.7 13.3 48 7.0 NE 13 20 7 11 1021.3 1018.9 0.0
09/12:30pm 25.6 24.8 14.1 49 7.0 NNW 11 19 6 10 1021.7 1019.2 0.0
09/12:00pm 24.9 24.8 13.8 50 6.7 NNW 7 15 4 8 1022.0 1019.5 0.0
09/11:30am 24.2 24.2 13.7 52 6.3 WNW 6 11 3 6 1022.3 1019.9 0.0
09/11:00am 23.0 22.3 11.4 48 6.6 ENE 6 11 3 6 1022.6 1020.2 0.0
09/10:30am 21.9 21.1 13.0 57 5.2 ENE 9 15 5 8 1022.8 1020.4 0.0
09/10:00am 21.3 20.1 12.7 58 5.0 ESE 11 17 6 9 1022.9 1020.5 0.0
09/09:30am 20.9 20.3 13.4 62 4.4 SSE 9 15 5 8 1023.1 1020.7 0.0
09/09:00am 19.6 19.6 14.2 71 3.2 ESE 7 11 4 6 1023.2 1020.8 0.0
09/08:30am 18.6 18.3 14.3 76 2.5 SE 9 13 5 7 1023.0 1020.6 0.0
09/08:00am 17.7 17.5 14.6 82 1.8 ESE 9 13 5 7 1022.9 1020.5 0.0
09/07:30am 16.5 16.3 14.7 89 1.1 SE 9 11 5 6 1022.6 1020.2 0.0
09/07:00am 14.7 14.6 13.9 95 0.5 ESE 7 9 4 5 1022.4 1020.0 0.0
09/06:30am 14.4 14.2 13.6 95 0.5 ESE 7 11 4 6 1022.1 1019.7 0.0
09/06:00am 14.4 14.2 13.6 95 0.5 SE 7 9 4 5 1021.7 1019.2 0.0
09/05:30am 14.6 14.5 14.0 96 0.3 SE 7 9 4 5 1021.5 1019.1 0.0
09/05:00am 14.3 13.9 13.0 92 0.7 SSE 7 9 4 5 1021.3 1018.9 0.0
09/04:30am 16.3 16.3 14.3 88 1.2 S 7 9 4 5 1021.2 1018.8 0.0
09/04:00am 16.3 16.5 14.1 87 1.3 S 6 7 3 4 1021.2 1018.8 0.0
09/03:30am 16.9 15.5 14.4 85 1.5 ENE 15 17 8 9 1021.2 1018.8 0.0
09/03:00am 16.9 16.3 14.7 87 1.3 ENE 11 13 6 7 1021.3 1018.9 0.0
09/02:30am 17.0 16.2 15.0 88 1.2 ESE 13 17 7 9 1021.5 1019.1 0.0
09/02:00am 16.0 16.1 14.0 88 1.2 SSE 6 7 3 4 1021.7 1019.2 0.0
09/01:30am 17.1 18.4 14.2 83 1.7 CALM 0 0 0 0 1021.7 1019.2 0.0
09/01:00am 17.3 18.3 14.4 83 1.7 NE 2 7 1 4 1021.8 1019.3 0.0
09/12:30am 17.9 17.6 14.4 80 2.1 ENE 9 13 5 7 1021.9 1019.4 0.0
09/12:00am 18.0 18.0 14.3 79 2.2 E 7 11 4 6 1022.2 1019.8 0.0
 
Date/Time
EDT
Tmp

°C
App
Tmp
°C
Dew
Point
°C
Rel
Hum
%
Delta-T

°C
Wind Press
QNH
hPa
Press
MSL
hPa
Rain
since
9 am
mm
Dir
 
Spd
km/h
Gust
km/h
Spd
kts
Gust
kts
08/11:30pm 18.2 17.2 13.3 73 2.8 E 11 15 6 8 1022.1 1019.7 0.0
08/11:00pm 18.9 18.2 13.1 69 3.4 ESE 9 13 5 7 1021.9 1019.4 0.0
08/10:30pm 19.7 19.2 12.5 63 4.2 ESE 7 13 4 7 1021.7 1019.2 0.0
08/10:00pm 20.0 19.2 13.0 64 4.1 E 9 15 5 8 1021.4 1019.0 0.0
08/09:30pm 20.7 19.4 13.6 64 4.2 E 13 17 7 9 1021.3 1018.9 0.0
08/09:00pm 21.1 20.3 13.0 60 4.7 E 9 13 5 7 1020.9 1018.5 0.0
08/08:30pm 22.3 20.2 12.3 53 5.8 E 15 20 8 11 1020.3 1017.8 0.0
08/08:00pm 23.4 20.2 11.8 48 6.7 ENE 20 30 11 16 1019.7 1017.3 0.0
08/07:30pm 25.2 20.4 11.7 43 7.9 ENE 28 35 15 19 1019.2 1016.8 0.0
08/07:00pm 26.8 23.0 12.5 41 8.5 ENE 24 30 13 16 1018.7 1016.2 0.0
08/06:30pm 27.8 24.2 13.0 40 8.9 ENE 24 33 13 18 1018.3 1015.8 0.0
08/06:00pm 28.5 24.6 12.0 36 9.8 NE 24 32 13 17 1018.1 1015.6 0.0
08/05:30pm 29.1 25.7 11.2 33 10.5 NE 20 30 11 16 1018.1 1015.6 0.0
08/05:00pm 30.0 26.3 10.0 29 11.6 NE 20 30 11 16 1018.3 1015.8 0.0
08/04:30pm 30.1 25.1 9.6 28 11.8 NNE 26 37 14 20 1018.3 1015.8 0.0
08/04:00pm 30.4 27.9 9.8 28 11.9 NNE 13 26 7 14 1018.4 1015.9 0.0
08/03:30pm 30.6 28.3 8.9 26 12.4 ENE 11 19 6 10 1018.6 1016.1 0.0
08/03:00pm 30.6 28.3 8.9 26 12.4 SE 11 19 6 10 1018.8 1016.3 0.0
08/02:30pm 30.1 28.2 10.6 30 11.4 N 11 17 6 9 1019.1 1016.7 0.0
08/02:00pm 29.7 27.3 8.7 27 11.9 ENE 11 17 6 9 1019.3 1016.9 0.0
08/01:30pm 29.7 26.5 7.0 24 12.5 ESE 13 20 7 11 1019.6 1017.2 0.0
08/01:00pm 29.0 26.7 10.6 32 10.7 SE 13 20 7 11 1019.7 1017.3 0.0
08/12:30pm 29.2 25.4 6.0 23 12.5 SSE 15 26 8 14 1020.1 1017.6 0.0
08/12:00pm 28.2 25.3 8.0 28 11.2 S 13 22 7 12 1020.4 1017.9 0.0
08/11:30am 27.4 25.2 9.3 32 10.2 SE 11 24 6 13 1020.8 1018.4 0.0
08/11:00am 25.5 24.6 12.7 45 7.6 SW 9 13 5 7 1021.1 1018.7 0.0
08/10:30am 24.4 24.2 14.8 55 5.9 SW 9 13 5 7 1021.3 1018.9 0.0
08/10:00am 22.0 21.5 12.8 56 5.4 WNW 7 9 4 5 1021.4 1019.0 0.0
08/09:30am 20.6 20.2 13.1 62 4.4 NW 7 9 4 5 1021.4 1019.0 0.0
08/09:00am 19.3 18.9 13.0 67 3.6 ESE 7 11 4 6 1021.5 1019.1 0.0
08/08:30am 17.3 16.7 12.4 73 2.8 SE 7 7 4 4 1021.7 1019.2 0.0
08/08:00am 16.2 15.7 12.6 79 2.0 SE 7 11 4 6 1021.5 1019.1 0.0
08/07:30am 14.3 15.1 12.7 90 0.9 CALM 0 4 0 2 1021.3 1018.9 0.0
08/07:00am 12.5 13.0 11.7 95 0.4 CALM 0 0 0 0 1021.0 1018.6 0.0
08/06:30am 12.4 12.3 12.1 98 0.2 N 4 6 2 3 1020.9 1018.5 0.0
08/06:00am 11.9 12.3 11.4 97 0.3 CALM 0 0 0 0 1020.6 1018.2 0.0
08/05:30am 13.0 13.1 12.7 98 0.2 SSE 4 7 2 4 1020.5 1018.1 0.0
08/05:00am 13.0 13.5 12.8 99 0.1 E 2 7 1 4 1020.4 1017.9 0.0
08/04:30am 13.7 14.7 13.2 97 0.3 CALM 0 0 0 0 1020.4 1017.9 0.0
08/04:00am 13.8 14.7 13.0 95 0.5 CALM 0 0 0 0 1020.3 1017.8 0.0
08/03:30am 14.8 15.2 13.8 94 0.6 N 4 7 2 4 1020.2 1017.7 0.0
08/03:00am 15.0 15.1 14.5 97 0.3 SE 7 9 4 5 1020.4 1017.9 0.0
08/02:30am 14.3 15.1 12.7 90 0.9 CALM 0 0 0 0 1020.5 1018.1 0.0
08/02:00am 15.8 15.8 14.3 91 0.9 ESE 7 9 4 5 1020.6 1018.2 0.0
08/01:30am 16.5 17.6 14.5 88 1.2 E 2 9 1 5 1020.8 1018.4 0.0
08/01:00am 17.0 17.0 14.3 84 1.6 S 7 7 4 4 1020.9 1018.5 0.0
08/12:30am 17.6 17.5 15.0 85 1.6 NW 9 11 5 6 1020.9 1018.5 0.0
08/12:00am 18.4 18.4 15.3 82 1.9 SSW 9 15 5 8 1020.7 1018.3 0.0
 
Date/Time
EDT
Tmp

°C
App
Tmp
°C
Dew
Point
°C
Rel
Hum
%
Delta-T

°C
Wind Press
QNH
hPa
Press
MSL
hPa
Rain
since
9 am
mm
Dir
 
Spd
km/h
Gust
km/h
Spd
kts
Gust
kts
07/11:30pm 17.2 15.5 14.8 86 1.4 ENE 17 17 9 9 1020.6 1018.2 0.0
07/11:00pm 18.0 18.1 14.5 80 2.1 E 7 9 4 5 1020.7 1018.3 0.0
07/10:30pm 18.9 19.0 14.4 75 2.7 E 7 9 4 5 1020.4 1017.9 0.0
07/10:00pm 19.9 19.4 13.8 68 3.6 E 9 13 5 7 1020.2 1017.7 0.0
07/09:30pm 20.8 19.8 13.5 63 4.3 ESE 11 19 6 10 1019.7 1017.3 0.0
07/09:00pm 21.8 22.8 14.4 63 4.4 ESE 2 9 1 5 1019.2 1016.8 0.0
07/08:30pm 22.7 21.2 14.3 59 5.1 E 15 20 8 11 1018.6 1016.1 0.0
07/08:00pm 23.9 21.5 13.7 53 6.1 ENE 19 28 10 15 1018.1 1015.6 0.0
07/07:30pm 25.6 22.5 13.5 47 7.3 ENE 22 28 12 15 1017.6 1015.2 0.0
07/07:00pm 26.8 23.9 10.9 37 9.2 NE 17 26 9 14 1017.1 1014.6 0.0
07/06:30pm 27.2 23.3 8.6 31 10.4 NE 19 28 10 15 1016.8 1014.3 0.0
07/06:00pm 28.1 23.8 6.8 26 11.6 NE 19 26 10 14 1016.7 1014.2 0.0
07/05:30pm 28.5 25.5 10.7 33 10.4 ENE 17 26 9 14 1016.5 1014.0 0.0
07/05:00pm 28.9 26.4 9.6 30 11.0 E 13 19 7 10 1016.5 1014.0 0.0
07/04:30pm 28.6 26.8 9.3 30 11.0 SW 9 13 5 7 1016.5 1014.0 0.0
07/04:00pm 27.9 26.0 9.2 31 10.6 SSW 9 13 5 7 1016.7 1014.2 0.0
07/03:30pm 27.6 25.5 11.2 36 9.6 WSW 13 19 7 10 1017.0 1014.5 0.0
07/03:00pm 27.1 26.0 10.8 36 9.4 NW 7 17 4 9 1017.3 1014.8 0.0
07/02:30pm 26.3 25.0 11.2 38 8.8 NNW 9 15 5 8 1017.7 1015.3 0.0
07/02:00pm 26.0 25.1 11.4 40 8.5 W 7 15 4 8 1018.1 1015.6 0.0
07/01:30pm 25.0 24.5 11.9 44 7.7 W 6 11 3 6 1018.4 1015.9 0.0
07/01:00pm 23.9 22.5 12.2 48 6.8 NW 11 13 6 7 1018.8 1016.3 0.0
07/12:30pm 22.8 22.2 12.4 52 6.1 N 7 11 4 6 1019.2 1016.8 0.0
07/12:00pm 22.1 21.8 12.6 55 5.5 E 6 9 3 5 1019.4 1017.0 0.0
07/11:30am 21.4 20.9 12.5 57 5.2 WSW 7 11 4 6 1019.9 1017.4 0.0
07/11:00am 20.1 19.3 11.8 59 4.7 NNE 7 11 4 6 1020.2 1017.7 0.0
07/10:30am 19.8 19.5 12.8 64 4.1 W 6 13 3 7 1020.5 1018.1 0.0
07/10:00am 18.7 18.4 12.7 68 3.4 NNE 6 13 3 7 1020.6 1018.2 0.0
07/09:30am 17.6 17.2 11.2 66 3.6 WSW 4 11 2 6 1020.6 1018.2 0.0
07/09:00am 16.1 15.6 11.9 76 2.3 SSW 6 9 3 5 1020.7 1018.3 0.0
07/08:30am 14.9 14.6 11.3 79 2.0 SE 4 7 2 4 1020.6 1018.2 0.0
07/08:00am 13.5 11.7 10.7 83 1.5 SE 11 13 6 7 1020.6 1018.2 0.0
07/07:30am 12.4 11.6 11.1 92 0.7 SE 6 7 3 4 1020.5 1018.1 0.0
07/07:00am 10.7 9.5 10.2 97 0.3 N 7 9 4 5 1020.3 1017.8 0.0
07/06:30am 10.5 10.6 10.2 98 0.2 CALM 0 6 0 3 1020.2 1017.7 0.0
07/06:00am 10.0 9.1 9.4 96 0.3 NNE 4 7 2 4 1019.9 1017.4 0.0
07/05:30am 10.4 10.4 9.8 96 0.3 CALM 0 9 0 5 1019.6 1017.2 0.0
07/05:00am 11.4 10.5 10.8 96 0.3 NE 6 7 3 4 1019.4 1017.0 0.0
07/04:30am 10.9 10.1 9.5 91 0.7 ESE 4 11 2 6 1019.4 1017.0 0.0
07/04:00am 11.9 10.5 10.8 93 0.6 ESE 9 13 5 7 1019.3 1016.9 0.0
07/03:30am 12.5 11.2 11.4 93 0.6 ESE 9 15 5 8 1019.4 1017.0 0.0
07/03:00am 12.1 10.7 11.0 93 0.6 ESE 9 11 5 6 1019.5 1017.1 0.0
07/02:30am 12.6 10.9 11.3 92 0.7 E 11 13 6 7 1019.7 1017.3 0.0
07/02:00am 12.8 11.9 11.5 92 0.7 ESE 7 9 4 5 1019.7 1017.3 0.0
07/01:30am 13.6 12.5 12.0 90 0.9 ESE 9 9 5 5 1020.0 1017.5 0.0
07/01:00am 13.5 12.0 11.9 90 0.9 SSE 11 13 6 7 1020.2 1017.7 0.0
07/12:30am 14.6 13.3 12.5 87 1.2 SE 11 13 6 7 1020.5 1018.1 0.0
07/12:00am 14.7 13.4 12.4 86 1.3 S 11 13 6 7 1020.5 1018.1 0.0
 
Date/Time
EDT
Tmp

°C
App
Tmp
°C
Dew
Point
°C
Rel
Hum
%
Delta-T

°C
Wind Press
QNH
hPa
Press
MSL
hPa
Rain
since
9 am
mm
Dir
 
Spd
km/h
Gust
km/h
Spd
kts
Gust
kts
06/11:30pm 15.1 14.5 12.4 84 1.5 ESE 7 13 4 7 1020.5 1018.1 0.0
06/11:00pm 15.9 14.6 12.6 81 1.9 ESE 11 17 6 9 1020.4 1017.9 0.0
06/10:30pm 16.2 13.7 12.4 78 2.1 E 17 22 9 12 1020.4 1017.9 0.0
06/10:00pm 16.8 13.0 12.5 76 2.4 E 24 30 13 16 1020.1 1017.6 0.0
06/09:30pm 17.3 13.9 12.6 74 2.7 E 22 28 12 15 1019.6 1017.2 0.0
06/09:00pm 18.1 14.3 12.3 69 3.3 E 24 32 13 17 1019.2 1016.8 0.0
06/08:30pm 19.0 16.1 12.3 65 3.8 E 19 26 10 14 1018.9 1016.4 0.0
06/08:00pm 20.1 18.0 12.3 61 4.5 E 15 24 8 13 1018.6 1016.1 0.0
06/07:30pm 21.5 18.4 11.5 53 5.7 ENE 19 24 10 13 1018.3 1015.8 0.0
06/07:00pm 22.5 19.9 11.9 51 6.1 ENE 17 22 9 12 1017.8 1015.4 0.0

Latest Capital City Observations: Canberra | Sydney | Melbourne | Brisbane | Adelaide | Perth | Hobart | Darwin

Other Formats:

Comma delimited format used in spreadsheet applications
http://www.bom.gov.au/fwo/IDN60903/IDN60903.94926.axf

JavaScript Object Notation format (JSON) in row-major order
http://www.bom.gov.au/fwo/IDN60903/IDN60903.94926.json